7G4 weather

Blue Knob Valley Airport
Newry, Pennsylvania, United States

Public forecast

Using degrees Fahrenheit for public forecast. Weather courtesy of forecast.io.

Closest aviation weather report (METAR) to Blue Knob Valley Airport

Closest report is Altoona Blair County Airport, 8.6 nm (15.8 km) SE. Retrieved 2020/07/16 00:53 UTC (29 minutes ago):

KAOO 160053Z AUTO 14005KT 10SM CLR 26/14 A3014 RMK AO2 SLP196 T02560139

Closest aviation forecast (TAF) to Blue Knob Valley Airport

Closest forecast is Altoona Blair County Airport, 8.6 nm (15.8 km) SE. Retrieved 2020-07-16 00:57 UTC (25 minutes ago):

TAF KAOO 152354Z 1600/1624 15005KT P6SM FEW250 FM161000 16005KT P6SM BKN025 FM161500 17010KT P6SM BKN050 FM162200 17011G18KT P6SM VCTS BKN040CB TEMPO 1622/1624 1 1/2SM TSRA BKN025CB